Deer Grove, Illinois
Current Conditions -  °F | °C
As of 8:55 PM on Friday 24 Oct 2014 (Local Time) from KSQI Reporting Station
Overcast Overcast  
Wind Chill: 61°   Ceiling: 3100
Heat Index: 61°   Visibility: 10mi
Dew Point: 48°   Wind: 0mph
Humidity: 63%   Direction: NA
Pressure: 29.96"   Gusts: NA
Location:  41.61°N, 89.69°W
Report Text: KSQI 250155Z AUTO 00000KT 10SM OVC031 16/09 A2996 RMK AO1
Loading
Personal Weather Stations






























Interactive Weather Map
Tropical Storm Tracking
New forecast layout! Learn more

10-Day Weather Forecast

Advertisements
Track Severe Weather on mobile